createdAt,value
2023-02-23T00:01:22.103Z,95.81
2023-02-23T00:04:25.354Z,95.72
2023-02-23T00:07:27.930Z,96.47
2023-02-23T00:10:31.677Z,96.30
2023-02-23T00:13:37.608Z,96.15
2023-02-23T00:16:40.472Z,96.03
2023-02-23T00:19:43.662Z,96.82
2023-02-23T00:22:46.912Z,94.22
2023-02-23T00:25:49.474Z,93.81
2023-02-23T00:28:55.860Z,93.72
2023-02-23T00:31:58.569Z,94.42
2023-02-23T00:35:01.568Z,94.59
2023-02-23T00:38:04.128Z,96.48
2023-02-23T00:41:08.211Z,95.15
2023-02-23T00:44:10.927Z,95.38
2023-02-23T00:47:13.698Z,95.03
2023-02-23T00:50:18.141Z,94.81
2023-02-23T00:53:21.999Z,94.78
2023-02-23T00:56:26.847Z,95.34
2023-02-23T00:59:29.736Z,97.09
2023-02-23T01:02:32.461Z,97.41
2023-02-23T01:05:35.633Z,96.50
2023-02-23T01:08:40.826Z,97.84
2023-02-23T01:11:46.893Z,97.99
2023-02-23T01:14:50.190Z,100.00
2023-02-23T01:17:53.122Z,98.42
2023-02-23T01:20:55.709Z,93.63
2023-02-23T01:23:58.942Z,92.47
2023-02-23T01:27:01.566Z,92.68
2023-02-23T01:30:05.118Z,89.46
2023-02-23T01:33:08.103Z,88.01
2023-02-23T01:36:11.012Z,87.69
2023-02-23T01:39:19.378Z,89.46
2023-02-23T01:42:22.877Z,89.87
2023-02-23T01:45:28.808Z,90.48
2023-02-23T01:48:37.461Z,90.53
2023-02-23T01:51:44.326Z,91.33
2023-02-23T01:54:52.090Z,92.21
2023-02-23T01:58:02.271Z,92.70
2023-02-23T02:01:05.572Z,93.69
2023-02-23T02:04:16.437Z,93.10
2023-02-23T02:07:25.002Z,91.84
2023-02-23T02:10:47.438Z,92.97
2023-02-23T02:13:50.392Z,93.46
2023-02-23T02:17:21.019Z,93.78
2023-02-23T02:20:43.017Z,94.00
2023-02-23T02:24:10.992Z,94.58
2023-02-23T02:27:34.213Z,94.36
2023-02-23T02:30:48.636Z,92.05
2023-02-23T02:34:29.180Z,91.75
2023-02-23T02:37:34.747Z,91.40
2023-02-23T02:40:40.291Z,92.23
2023-02-23T02:44:00.737Z,90.46
2023-02-23T02:47:09.374Z,90.86
2023-02-23T02:50:46.354Z,91.21
2023-02-23T02:54:06.934Z,93.59
2023-02-23T02:57:12.990Z,93.27
2023-02-23T03:00:40.810Z,95.02
2023-02-23T03:04:06.234Z,93.13
2023-02-23T03:07:39.041Z,92.72
2023-02-23T03:11:15.185Z,92.87
2023-02-23T03:15:03.195Z,90.45
2023-02-23T03:18:53.303Z,90.59
2023-02-23T03:22:33.077Z,91.58
2023-02-23T03:26:06.743Z,92.13
2023-02-23T03:29:56.951Z,90.93
2023-02-23T03:33:25.957Z,91.64
2023-02-23T03:36:53.324Z,92.94
2023-02-23T03:40:26.920Z,93.47
2023-02-23T03:43:53.306Z,95.21
2023-02-23T03:47:17.458Z,93.77
2023-02-23T03:50:47.305Z,93.67
2023-02-23T03:54:16.491Z,92.90
2023-02-23T03:57:41.469Z,91.78
2023-02-23T04:01:07.345Z,92.76
2023-02-23T04:04:30.240Z,92.81
2023-02-23T04:07:53.556Z,92.70
2023-02-23T04:11:29.338Z,95.09
2023-02-23T04:14:40.473Z,94.14
2023-02-23T04:17:44.238Z,93.66
2023-02-23T04:20:46.882Z,94.59
2023-02-23T04:23:49.874Z,91.83
2023-02-23T04:26:52.480Z,91.15
2023-02-23T04:29:55.473Z,86.98
2023-02-23T04:32:59.226Z,86.29
2023-02-23T04:36:02.129Z,86.97
2023-02-23T04:39:04.972Z,84.53
2023-02-23T04:42:08.054Z,84.13
2023-02-23T04:45:11.060Z,84.48
2023-02-23T04:48:13.931Z,85.88
2023-02-23T04:51:16.772Z,86.86
2023-02-23T04:54:20.969Z,84.84
2023-02-23T04:57:23.643Z,85.04
2023-02-23T05:00:29.415Z,85.57
2023-02-23T05:03:32.101Z,84.61
2023-02-23T05:06:35.048Z,83.50
2023-02-23T05:09:37.784Z,84.19
2023-02-23T05:12:40.881Z,84.34
2023-02-23T05:15:43.449Z,84.36
2023-02-23T05:18:46.270Z,84.70
2023-02-23T05:21:50.484Z,83.06
2023-02-23T05:24:55.279Z,84.17
2023-02-23T05:27:59.519Z,83.35
2023-02-23T05:31:03.803Z,84.09
2023-02-23T05:34:07.234Z,85.34
2023-02-23T05:37:10.082Z,84.28
2023-02-23T05:40:14.055Z,83.30
2023-02-23T05:43:19.306Z,83.94
2023-02-23T05:46:26.766Z,84.51
2023-02-23T05:49:30.128Z,83.66
2023-02-23T05:52:32.927Z,84.61
2023-02-23T05:55:36.045Z,84.39
2023-02-23T05:58:38.640Z,82.26
2023-02-23T06:01:41.870Z,81.98
2023-02-23T06:04:44.984Z,81.50
2023-02-23T06:07:48.143Z,81.80
2023-02-23T06:10:51.356Z,82.02
2023-02-23T06:13:54.077Z,82.06
2023-02-23T06:16:56.940Z,82.95
2023-02-23T06:20:02.045Z,82.07
2023-02-23T06:23:05.212Z,81.76
2023-02-23T06:26:08.362Z,82.22
2023-02-23T06:29:11.995Z,81.08
2023-02-23T06:32:14.725Z,80.71
2023-02-23T06:35:17.978Z,79.76
2023-02-23T06:38:21.202Z,80.00
2023-02-23T06:41:24.679Z,79.60
2023-02-23T06:44:27.200Z,79.97
2023-02-23T06:47:30.097Z,78.23
2023-02-23T06:50:33.722Z,78.27
2023-02-23T06:53:37.032Z,77.55
2023-02-23T06:56:39.671Z,77.25
2023-02-23T06:59:42.773Z,77.09
2023-02-23T07:02:45.848Z,77.41
2023-02-23T07:05:50.145Z,76.07
2023-02-23T07:08:52.921Z,76.98
2023-02-23T07:11:55.850Z,77.04
2023-02-23T07:14:58.567Z,76.24
2023-02-23T07:18:01.535Z,75.89
2023-02-23T07:21:04.356Z,73.51
2023-02-23T07:24:07.687Z,73.39
2023-02-23T07:27:10.272Z,73.47
2023-02-23T07:30:14.995Z,72.18
2023-02-23T07:33:18.020Z,72.40
2023-02-23T07:36:22.641Z,72.83
2023-02-23T07:39:25.700Z,72.87
2023-02-23T07:42:28.663Z,72.11
2023-02-23T07:45:32.005Z,71.89
2023-02-23T07:48:35.530Z,70.40
2023-02-23T07:51:39.497Z,70.65
2023-02-23T07:54:42.389Z,71.29
2023-02-23T07:57:45.083Z,69.77
2023-02-23T08:00:48.016Z,69.15
2023-02-23T08:03:51.222Z,67.59
2023-02-23T08:06:55.181Z,66.91
2023-02-23T08:09:58.483Z,66.60
2023-02-23T08:13:01.252Z,66.00
2023-02-23T08:16:04.895Z,65.73
2023-02-23T08:19:07.711Z,65.23
2023-02-23T08:22:10.784Z,65.47
2023-02-23T08:25:13.452Z,63.73
2023-02-23T08:28:16.411Z,63.10
2023-02-23T08:31:21.675Z,62.57
2023-02-23T08:34:25.181Z,62.65
2023-02-23T08:37:27.745Z,62.05
2023-02-23T08:40:31.008Z,61.66
2023-02-23T08:43:33.722Z,61.78
2023-02-23T08:46:36.667Z,60.62
2023-02-23T08:49:39.371Z,61.46
2023-02-23T08:52:42.687Z,60.08
2023-02-23T08:55:45.458Z,59.41
2023-02-23T08:58:48.597Z,60.23
2023-02-23T09:01:51.734Z,60.94
2023-02-23T09:04:55.314Z,60.91
2023-02-23T09:07:57.992Z,60.21
2023-02-23T09:11:00.882Z,60.44
2023-02-23T09:14:03.801Z,60.60
2023-02-23T09:17:06.883Z,60.43
2023-02-23T09:20:13.552Z,60.17
2023-02-23T09:23:16.804Z,58.30
2023-02-23T09:26:20.773Z,57.08
2023-02-23T09:29:24.758Z,58.45
2023-02-23T09:32:27.579Z,55.86
2023-02-23T09:35:30.783Z,55.33
2023-02-23T09:38:33.568Z,54.77
2023-02-23T09:41:58.288Z,53.90
2023-02-23T09:45:26.497Z,54.25
2023-02-23T09:48:30.107Z,53.03
2023-02-23T09:51:39.205Z,53.15
2023-02-23T09:54:43.270Z,53.21
2023-02-23T09:57:48.491Z,53.59
2023-02-23T10:01:12.530Z,53.12
2023-02-23T10:04:28.912Z,52.95
2023-02-23T10:07:49.650Z,52.95
2023-02-23T10:11:18.088Z,52.77
2023-02-23T10:14:52.983Z,51.91
2023-02-23T10:18:45.194Z,51.55
2023-02-23T10:22:03.548Z,51.80
2023-02-23T10:25:12.716Z,52.20
2023-02-23T10:28:17.460Z,51.70
2023-02-23T10:31:34.449Z,50.35
2023-02-23T10:34:37.596Z,50.35
2023-02-23T10:37:40.550Z,49.34
2023-02-23T10:40:46.734Z,50.11
2023-02-23T10:43:49.808Z,50.10
2023-02-23T10:47:32.897Z,49.65
2023-02-23T10:51:02.691Z,49.08
2023-02-23T10:54:44.815Z,49.92
2023-02-23T10:57:51.556Z,48.54
2023-02-23T11:01:02.023Z,48.68
2023-02-23T11:04:25.511Z,48.46
2023-02-23T11:07:31.372Z,48.87
2023-02-23T11:10:34.685Z,48.55
2023-02-23T11:13:46.796Z,48.77
2023-02-23T11:16:50.498Z,49.11
2023-02-23T11:19:59.526Z,49.98
2023-02-23T11:23:14.683Z,48.33
2023-02-23T11:26:31.308Z,48.91
2023-02-23T11:29:38.944Z,49.10
2023-02-23T11:32:42.621Z,48.46
2023-02-23T11:35:46.561Z,50.10
2023-02-23T11:39:01.386Z,49.90
2023-02-23T11:42:15.043Z,49.28
2023-02-23T11:45:22.744Z,50.48
2023-02-23T11:48:25.730Z,50.17
2023-02-23T11:51:39.924Z,50.73
2023-02-23T11:54:52.553Z,50.68
2023-02-23T11:58:11.846Z,51.04
2023-02-23T12:01:17.867Z,51.25
2023-02-23T12:04:37.154Z,51.74
2023-02-23T12:07:45.978Z,51.36
2023-02-23T12:10:57.218Z,51.10
2023-02-23T12:14:12.184Z,51.29
2023-02-23T12:17:17.967Z,51.27
2023-02-23T12:20:30.379Z,51.15
2023-02-23T12:23:37.257Z,51.64
2023-02-23T12:26:50.446Z,51.96
2023-02-23T12:30:34.630Z,51.74
2023-02-23T12:33:44.488Z,52.54
2023-02-23T12:37:12.447Z,52.42
2023-02-23T12:40:35.635Z,51.81
2023-02-23T12:43:49.509Z,52.72
2023-02-23T12:46:55.220Z,53.50
2023-02-23T12:50:29.137Z,52.39
2023-02-23T12:53:39.963Z,52.21
2023-02-23T12:57:04.650Z,51.97
2023-02-23T13:00:32.041Z,52.00
2023-02-23T13:03:48.627Z,51.74
2023-02-23T13:07:05.218Z,52.24
2023-02-23T13:10:36.092Z,51.91
2023-02-23T13:13:52.949Z,52.33
2023-02-23T13:17:45.332Z,51.62
2023-02-23T13:20:54.328Z,51.44
2023-02-23T13:24:03.403Z,51.31
2023-02-23T13:27:30.565Z,51.61
2023-02-23T13:30:35.542Z,52.13
2023-02-23T13:33:44.302Z,52.02
2023-02-23T13:36:50.531Z,52.00
2023-02-23T13:40:19.352Z,52.03
2023-02-23T13:43:23.132Z,50.76
2023-02-23T13:46:26.000Z,51.50
2023-02-23T13:49:47.156Z,50.15
2023-02-23T13:52:55.654Z,50.23
2023-02-23T13:56:03.335Z,49.72
2023-02-23T13:59:09.658Z,50.29
2023-02-23T14:02:33.711Z,50.11
2023-02-23T14:05:45.135Z,50.48
2023-02-23T14:09:13.275Z,49.89
2023-02-23T14:12:34.613Z,51.49
2023-02-23T14:15:39.743Z,50.70
2023-02-23T14:18:51.423Z,51.12
2023-02-23T14:22:10.006Z,51.56
2023-02-23T14:25:34.803Z,51.59
2023-02-23T14:28:44.495Z,52.17
2023-02-23T14:31:59.315Z,52.78
2023-02-23T14:35:02.535Z,52.98
2023-02-23T14:38:11.004Z,53.82
2023-02-23T14:41:13.724Z,53.39
2023-02-23T14:44:30.175Z,53.81
2023-02-23T14:47:43.070Z,54.15
2023-02-23T14:50:46.521Z,53.55
2023-02-23T14:53:53.558Z,52.46
2023-02-23T14:56:58.409Z,52.22
2023-02-23T15:00:07.033Z,52.69
2023-02-23T15:03:13.598Z,52.48
2023-02-23T15:06:16.449Z,53.23
2023-02-23T15:09:46.781Z,52.95
2023-02-23T15:12:50.575Z,53.56
2023-02-23T15:15:54.805Z,54.65
2023-02-23T15:19:00.332Z,56.12
2023-02-23T15:22:05.858Z,57.67
2023-02-23T15:25:33.777Z,57.92
2023-02-23T15:28:40.478Z,58.08
2023-02-23T15:31:53.987Z,59.38
2023-02-23T15:34:57.276Z,59.98
2023-02-23T15:38:14.066Z,59.74
2023-02-23T15:41:36.877Z,60.04
2023-02-23T15:44:44.919Z,60.22
2023-02-23T15:47:52.442Z,61.89
2023-02-23T15:50:57.854Z,61.47
2023-02-23T15:54:07.874Z,62.48
2023-02-23T15:57:20.149Z,62.98
2023-02-23T16:00:32.930Z,62.79
2023-02-23T16:03:38.955Z,63.83
2023-02-23T16:07:15.122Z,63.79
2023-02-23T16:10:22.338Z,63.75
2023-02-23T16:13:25.130Z,63.89
2023-02-23T16:16:28.436Z,64.97
2023-02-23T16:19:31.858Z,66.39
2023-02-23T16:22:36.363Z,65.11
2023-02-23T16:25:42.723Z,65.61
2023-02-23T16:28:46.780Z,66.59
2023-02-23T16:31:58.067Z,66.80
2023-02-23T16:35:08.773Z,66.71
2023-02-23T16:38:33.546Z,67.94
2023-02-23T16:41:36.422Z,67.75
2023-02-23T16:44:43.672Z,68.59
2023-02-23T16:47:48.144Z,67.20
2023-02-23T16:50:51.689Z,68.57
2023-02-23T16:53:55.170Z,68.88
2023-02-23T16:56:58.359Z,67.44
2023-02-23T17:00:01.513Z,68.62
2023-02-23T17:03:06.725Z,68.65
2023-02-23T17:06:09.822Z,69.28
2023-02-23T17:09:13.137Z,69.73
2023-02-23T17:12:21.701Z,69.58
2023-02-23T17:15:29.274Z,69.76
2023-02-23T17:18:38.878Z,69.26
2023-02-23T17:21:43.408Z,68.81
2023-02-23T17:24:46.385Z,69.19
2023-02-23T17:27:55.633Z,69.68
2023-02-23T17:30:58.943Z,70.29
2023-02-23T17:34:02.062Z,70.83
2023-02-23T17:37:07.570Z,70.88
2023-02-23T17:40:15.770Z,71.89
2023-02-23T17:43:21.560Z,73.14
2023-02-23T17:46:25.948Z,72.90
2023-02-23T17:49:29.454Z,73.07
2023-02-23T17:52:32.128Z,74.42
2023-02-23T17:55:35.294Z,78.70
2023-02-23T17:58:40.110Z,78.48
2023-02-23T18:01:43.349Z,78.62
2023-02-23T18:04:48.158Z,80.01
2023-02-23T18:07:51.048Z,76.64
2023-02-23T18:10:55.281Z,77.09
2023-02-23T18:13:58.138Z,79.03
2023-02-23T18:17:01.353Z,78.12
2023-02-23T18:20:06.463Z,78.24
2023-02-23T18:23:10.093Z,81.97
2023-02-23T18:26:18.616Z,81.99
2023-02-23T18:29:21.883Z,81.79
2023-02-23T18:32:24.964Z,82.31
2023-02-23T18:35:28.209Z,81.50
2023-02-23T18:38:31.399Z,81.08
2023-02-23T18:41:34.862Z,82.36
2023-02-23T18:44:37.860Z,78.93
2023-02-23T18:47:41.202Z,79.32
2023-02-23T18:50:44.503Z,82.70
2023-02-23T18:53:49.146Z,81.73
2023-02-23T18:56:52.437Z,80.14
2023-02-23T18:59:55.601Z,82.28
2023-02-23T19:02:58.489Z,85.44
2023-02-23T19:06:02.070Z,84.50
2023-02-23T19:09:09.553Z,82.53
2023-02-23T19:12:14.724Z,83.48
2023-02-23T19:15:17.700Z,85.41
2023-02-23T19:18:21.277Z,86.38
2023-02-23T19:21:24.746Z,84.35
2023-02-23T19:24:28.003Z,83.05
2023-02-23T19:27:34.361Z,84.02
2023-02-23T19:30:38.045Z,84.54
2023-02-23T19:33:40.940Z,85.22
2023-02-23T19:36:47.208Z,85.90
2023-02-23T19:39:50.537Z,85.10
2023-02-23T19:42:53.884Z,83.92
2023-02-23T19:46:03.558Z,82.96
2023-02-23T19:49:06.959Z,83.10
2023-02-23T19:52:10.156Z,83.97
2023-02-23T19:55:13.761Z,84.49
2023-02-23T19:58:16.570Z,85.39
2023-02-23T20:01:23.029Z,84.86
2023-02-23T20:04:28.314Z,85.57
2023-02-23T20:07:30.964Z,86.29
2023-02-23T20:10:34.807Z,88.37
2023-02-23T20:13:40.960Z,87.29
2023-02-23T20:16:45.229Z,87.83
2023-02-23T20:19:48.268Z,87.03
2023-02-23T20:22:55.707Z,86.76
2023-02-23T20:25:58.604Z,87.56
2023-02-23T20:29:04.584Z,86.87
2023-02-23T20:32:07.610Z,87.14
2023-02-23T20:35:14.325Z,88.83
2023-02-23T20:38:17.211Z,87.59
2023-02-23T20:41:21.233Z,89.16
2023-02-23T20:44:24.804Z,89.51
2023-02-23T20:47:28.160Z,91.48
2023-02-23T20:50:34.035Z,90.73
2023-02-23T20:53:37.452Z,89.33
2023-02-23T20:56:41.593Z,88.11
2023-02-23T20:59:44.927Z,86.45
2023-02-23T21:02:48.332Z,86.68
2023-02-23T21:05:51.759Z,87.90
2023-02-23T21:09:04.314Z,87.69
2023-02-23T21:12:10.269Z,86.69
2023-02-23T21:15:14.891Z,86.30
2023-02-23T21:18:18.150Z,86.14
2023-02-23T21:21:21.287Z,85.69
2023-02-23T21:24:25.772Z,82.51
2023-02-23T21:27:28.620Z,82.61
2023-02-23T21:30:32.007Z,81.55
2023-02-23T21:33:34.678Z,81.72
2023-02-23T21:36:38.510Z,81.59
2023-02-23T21:39:42.092Z,81.85
2023-02-23T21:42:44.999Z,81.17
2023-02-23T21:45:47.625Z,79.91
2023-02-23T21:48:51.128Z,80.69
2023-02-23T21:51:55.256Z,81.13
2023-02-23T21:54:59.702Z,81.11
2023-02-23T21:58:03.139Z,81.42
2023-02-23T22:01:36.820Z,81.57
2023-02-23T22:04:40.373Z,81.85
2023-02-23T22:07:51.685Z,83.21
2023-02-23T22:10:54.577Z,84.48
2023-02-23T22:13:59.453Z,82.79
2023-02-23T22:17:03.957Z,82.77
2023-02-23T22:20:07.450Z,83.24
2023-02-23T22:23:10.522Z,82.76
2023-02-23T22:26:13.643Z,81.87
2023-02-23T22:29:16.656Z,80.82
2023-02-23T22:32:19.477Z,80.81
2023-02-23T22:35:22.488Z,81.26
2023-02-23T22:38:25.304Z,81.03
2023-02-23T22:41:29.635Z,79.69
2023-02-23T22:44:32.273Z,79.19
2023-02-23T22:47:35.435Z,78.84
2023-02-23T22:50:38.525Z,78.11
2023-02-23T22:53:41.971Z,78.51
2023-02-23T22:56:44.612Z,77.94
2023-02-23T22:59:58.183Z,77.83
2023-02-23T23:03:05.461Z,76.29
2023-02-23T23:06:11.176Z,77.53
2023-02-23T23:09:14.914Z,78.38
2023-02-23T23:12:18.249Z,77.81
2023-02-23T23:15:23.053Z,77.87
2023-02-23T23:18:28.319Z,77.84
2023-02-23T23:21:33.369Z,78.16
2023-02-23T23:24:36.811Z,77.49
2023-02-23T23:27:41.371Z,78.01
2023-02-23T23:30:46.033Z,78.69
2023-02-23T23:33:51.747Z,77.92
2023-02-23T23:36:55.490Z,78.09
2023-02-23T23:40:00.044Z,78.01
2023-02-23T23:43:06.143Z,77.95
2023-02-23T23:46:10.736Z,78.46
2023-02-23T23:49:17.223Z,78.88
2023-02-23T23:52:21.039Z,78.67
2023-02-23T23:55:23.967Z,78.51
2023-02-23T23:58:26.807Z,78.51
